createdAt,value
2022-12-01T00:09:15.278Z,76
2022-12-01T00:19:18.982Z,76
2022-12-01T00:29:27.143Z,75
2022-12-01T00:39:35.289Z,75
2022-12-01T00:49:43.320Z,75
2022-12-01T00:59:51.386Z,74
2022-12-01T01:09:59.491Z,75
2022-12-01T01:20:08.741Z,75
2022-12-01T01:30:10.725Z,74
2022-12-01T01:40:18.636Z,73
2022-12-01T01:50:26.601Z,73
2022-12-01T02:00:34.550Z,74
2022-12-01T02:10:42.623Z,73
2022-12-01T02:20:50.653Z,73
2022-12-01T02:30:58.706Z,72
2022-12-01T02:41:06.645Z,73
2022-12-01T02:51:14.592Z,73
2022-12-01T03:01:22.820Z,72
2022-12-01T03:11:30.691Z,72
2022-12-01T03:21:38.598Z,71
2022-12-01T03:31:46.561Z,71
2022-12-01T03:41:54.563Z,71
2022-12-01T03:52:02.556Z,72
2022-12-01T04:02:10.552Z,71
2022-12-01T04:12:18.613Z,71
2022-12-01T04:22:26.643Z,70
2022-12-01T04:32:34.593Z,70
2022-12-01T04:42:42.502Z,70
2022-12-01T04:52:50.538Z,69
2022-12-01T05:02:58.712Z,67
2022-12-01T05:13:06.234Z,68
2022-12-01T05:23:16.685Z,69
2022-12-01T05:33:21.135Z,69
2022-12-01T05:43:29.719Z,70
2022-12-01T05:53:37.579Z,69
2022-12-01T06:03:37.399Z,69
2022-12-01T06:13:45.386Z,69
2022-12-01T06:23:53.480Z,68
2022-12-01T06:34:06.250Z,68
2022-12-01T06:44:05.615Z,69
2022-12-01T06:54:13.656Z,68
2022-12-01T07:04:22.775Z,68
2022-12-01T07:14:22.733Z,67
2022-12-01T07:24:32.150Z,68
2022-12-01T07:34:40.277Z,67
2022-12-01T07:44:48.367Z,67
2022-12-01T07:54:57.832Z,67
2022-12-01T08:05:06.289Z,66
2022-12-01T08:15:14.659Z,66
2022-12-01T08:25:23.160Z,67
2022-12-01T08:35:31.170Z,66
2022-12-01T08:45:39.169Z,65
2022-12-01T08:55:47.252Z,65
2022-12-01T09:05:58.247Z,65
2022-12-01T09:15:56.709Z,66
2022-12-01T09:26:04.639Z,66
2022-12-01T09:36:11.869Z,65
2022-12-01T09:46:20.129Z,65
2022-12-01T09:56:28.774Z,64
2022-12-01T10:06:36.954Z,63
2022-12-01T10:16:37.655Z,62
2022-12-01T10:26:45.769Z,61
2022-12-01T10:36:55.434Z,61
2022-12-01T10:47:03.501Z,59
2022-12-01T10:57:12.056Z,58
2022-12-01T11:07:21.674Z,57
2022-12-01T11:17:30.189Z,56
2022-12-01T11:27:38.340Z,54
2022-12-01T11:37:50.511Z,51
2022-12-01T11:47:53.675Z,48
2022-12-01T11:58:01.775Z,48
2022-12-01T12:08:10.122Z,47
2022-12-01T12:18:19.328Z,46
2022-12-01T12:28:27.472Z,45
2022-12-01T12:38:38.233Z,45
2022-12-01T12:48:45.627Z,46
2022-12-01T12:58:40.775Z,46
2022-12-01T13:08:51.164Z,45
2022-12-01T13:18:52.716Z,44
2022-12-01T13:29:08.660Z,44
2022-12-01T13:39:08.971Z,45
2022-12-01T13:49:20.373Z,46
2022-12-01T13:59:19.676Z,45
2022-12-01T14:09:19.420Z,46
2022-12-01T14:19:19.991Z,47
2022-12-01T14:29:31.928Z,48
2022-12-01T14:39:35.146Z,48
2022-12-01T14:49:39.268Z,46
2022-12-01T14:59:49.458Z,46
2022-12-01T15:09:45.107Z,46
2022-12-01T15:19:56.857Z,47
2022-12-01T15:30:03.497Z,49
2022-12-01T15:50:24.980Z,49
2022-12-01T16:00:31.522Z,49
2022-12-01T16:10:29.064Z,48
2022-12-01T16:20:30.916Z,48
2022-12-01T16:30:41.116Z,48
2022-12-01T16:40:39.362Z,48
2022-12-01T16:50:53.871Z,48
2022-12-01T17:00:57.229Z,49
2022-12-01T17:10:54.511Z,50
2022-12-01T17:21:02.983Z,50
2022-12-01T17:31:02.252Z,51
2022-12-01T17:41:25.421Z,52
2022-12-01T17:51:16.727Z,53
2022-12-01T18:01:09.218Z,53
2022-12-01T18:11:25.967Z,53
2022-12-01T18:21:26.704Z,54
2022-12-01T18:31:27.717Z,52
2022-12-01T18:41:37.895Z,51
2022-12-01T18:51:49.613Z,50
2022-12-01T19:11:49.491Z,50
2022-12-01T19:21:43.265Z,50
2022-12-01T19:31:52.366Z,50
2022-12-01T19:42:00.102Z,51
2022-12-01T19:52:00.708Z,52
2022-12-01T20:02:09.810Z,53
2022-12-01T20:12:19.454Z,52
2022-12-01T20:22:27.743Z,52
2022-12-01T20:32:36.152Z,52
2022-12-01T20:42:39.982Z,52
2022-12-01T20:52:40.195Z,51
2022-12-01T21:02:41.114Z,51
2022-12-01T21:12:53.188Z,53
2022-12-01T21:22:55.240Z,54
2022-12-01T21:32:56.194Z,54
2022-12-01T21:43:04.905Z,54
2022-12-01T21:53:13.662Z,55
2022-12-01T22:03:21.804Z,56
2022-12-01T22:13:29.842Z,56
2022-12-01T22:23:42.298Z,58
2022-12-01T22:33:41.565Z,59
2022-12-01T22:43:49.578Z,60
2022-12-01T22:53:57.731Z,61
2022-12-01T23:04:05.786Z,60
2022-12-01T23:14:13.933Z,60
2022-12-01T23:24:22.018Z,61
2022-12-01T23:34:29.111Z,61
2022-12-01T23:44:37.237Z,62
2022-12-01T23:54:45.246Z,63
